Vayland, South Dakota
Current Conditions -  °F | °C
As of 9:55 PM on Monday 22 Dec 2014 (Local Time) from KHON Reporting Station
Haze Haze  
Wind Chill: 27°   Ceiling: 300
Heat Index: 32°   Visibility: 0.75mi
Dew Point: 32°   Wind: 5mph
Humidity: 100%   Direction: 10°N
Pressure: 29.52"   Gusts: NA
Location:  44.3714°N, 98.681°W
Report Text: KHON 230355Z AUTO 01004KT 3/4SM BR VV003 00/00 A2952 RMK AO2 SLP011 T00000000
Loading
Personal Weather Stations






























Interactive Weather Map New forecast layout! Learn more

10-Day Weather Forecast

Advertisements
Track Severe Weather on mobile